This is the latest recevied weather packets stored in our database for station/object DM4XI-13. If no packets are shown the sender has not sent any weather packets the latest 10 day(s).
| Time | Temp. | Humidity | Pressure | Rain* | Wind** | Luminosity | Snow |
|---|---|---|---|---|---|---|---|
| 1777806468 | 25° C | 32% | 1012.4 hPa | 0 mm | 0.89 m/s, 151° | 635 W/m² | - |
| 1777806408 | 25° C | 31% | 1012.5 hPa | 0 mm | 2.68 m/s, 174° | 633 W/m² | - |
| 1777806346 | 25° C | 32% | 1012.5 hPa | 0 mm | 1.79 m/s, 169° | 630 W/m² | - |
| 1777806285 | 25° C | 32% | 1012.5 hPa | 0 mm | 0.45 m/s, 147° | 632 W/m² | - |
| 1777806225 | 25° C | 30% | 1012.5 hPa | 0 mm | 0.89 m/s, 199° | 623 W/m² | - |
| 1777806163 | 25° C | 29% | 1012.5 hPa | 0 mm | 1.34 m/s, 154° | 629 W/m² | - |
| 1777806103 | 25° C | 29% | 1012.5 hPa | 0 mm | 0.89 m/s, 154° | 633 W/m² | - |
| 1777806042 | 25° C | 32% | 1012.6 hPa | 0 mm | 1.79 m/s, 128° | 635 W/m² | - |
| 1777805981 | 25° C | 33% | 1012.5 hPa | 0 mm | 0.89 m/s, 156° | 645 W/m² | - |
| 1777805920 | 25° C | 30% | 1012.5 hPa | 0 mm | 0.89 m/s, 48° | 642 W/m² | - |
| 1777805859 | 25° C | 29% | 1012.6 hPa | 0 mm | 1.79 m/s, 101° | 642 W/m² | - |
| 1777805798 | 25° C | 28% | 1012.5 hPa | 0 mm | 0.89 m/s, 175° | 640 W/m² | - |
| 1777805737 | 25° C | 28% | 1012.7 hPa | 0 mm | 2.24 m/s, 161° | 647 W/m² | - |
| 1777805676 | 25° C | 30% | 1012.6 hPa | 0 mm | 2.24 m/s, 78° | 662 W/m² | - |
| 1777805615 | 25° C | 29% | 1012.5 hPa | 0 mm | 2.24 m/s, 126° | 663 W/m² | - |
| 1777805553 | 25° C | 29% | 1012.7 hPa | 0 mm | 1.79 m/s, 188° | 658 W/m² | - |
| 1777805493 | 25° C | 32% | 1012.8 hPa | 0 mm | 1.79 m/s, 209° | 654 W/m² | - |
| 1777805431 | 24.44° C | 31% | 1012.8 hPa | 0 mm | 1.34 m/s, 134° | 654 W/m² | - |
| 1777805371 | 24.44° C | 30% | 1012.5 hPa | 0 mm | 0.45 m/s, 140° | 653 W/m² | - |
| 1777805310 | 24.44° C | 31% | 1012.7 hPa | 0 mm | 0.89 m/s, 136° | 651 W/m² | - |
| 1777805249 | 24.44° C | 31% | 1012.6 hPa | 0 mm | 0.45 m/s, 189° | 650 W/m² | - |
| 1777805188 | 24.44° C | 32% | 1012.9 hPa | 0 mm | 1.79 m/s, 197° | 651 W/m² | - |
| 1777805126 | 24.44° C | 30% | 1012.7 hPa | 0 mm | 2.24 m/s, 136° | 650 W/m² | - |
| 1777805065 | 24.44° C | 31% | 1012.6 hPa | 0 mm | 0.89 m/s, 131° | 650 W/m² | - |
| 1777805005 | 24.44° C | 31% | 1012.8 hPa | 0 mm | 0.89 m/s, 171° | 647 W/m² | - |
* Rain latest hour (hover to see other rain measurements)
** Current wind speed in m/s (hover to see current wind gust speed)